sensor_id;sensor_type;location;lat;lon;timestamp;P1;durP1;ratioP1;P2;durP2;ratioP2
76548;SDS011;65391;52.068;4.542;2023-09-07T00:00:05;10.6;;;7.7;;
76548;SDS011;65391;52.068;4.542;2023-09-07T00:02:29;10.6;;;7.7;;
76548;SDS011;65391;52.068;4.542;2023-09-07T00:04:54;10.7;;;7.3;;
76548;SDS011;65391;52.068;4.542;2023-09-07T00:07:19;10.7;;;7.3;;
76548;SDS011;65391;52.068;4.542;2023-09-07T00:09:45;10.7;;;7.3;;
76548;SDS011;65391;52.068;4.542;2023-09-07T00:12:09;10.7;;;7.3;;
76548;SDS011;65391;52.068;4.542;2023-09-07T00:14:34;12.5;;;8.4;;
76548;SDS011;65391;52.068;4.542;2023-09-07T00:16:59;12.5;;;8.4;;
76548;SDS011;65391;52.068;4.542;2023-09-07T00:19:24;12.5;;;8.4;;
76548;SDS011;65391;52.068;4.542;2023-09-07T00:21:49;12.5;;;8.4;;
76548;SDS011;65391;52.068;4.542;2023-09-07T00:24:14;9.1;;;7.3;;
76548;SDS011;65391;52.068;4.542;2023-09-07T00:26:39;9.1;;;7.3;;
76548;SDS011;65391;52.068;4.542;2023-09-07T00:29:04;9.1;;;7.3;;
76548;SDS011;65391;52.068;4.542;2023-09-07T00:31:29;9.1;;;7.3;;
76548;SDS011;65391;52.068;4.542;2023-09-07T00:33:54;12.1;;;7.7;;
76548;SDS011;65391;52.068;4.542;2023-09-07T00:36:19;12.1;;;7.7;;
76548;SDS011;65391;52.068;4.542;2023-09-07T00:38:44;12.1;;;7.7;;
76548;SDS011;65391;52.068;4.542;2023-09-07T00:41:09;12.1;;;7.7;;
76548;SDS011;65391;52.068;4.542;2023-09-07T00:43:34;10.4;;;7.1;;
76548;SDS011;65391;52.068;4.542;2023-09-07T00:45:59;10.4;;;7.1;;
76548;SDS011;65391;52.068;4.542;2023-09-07T00:48:24;10.4;;;7.1;;
76548;SDS011;65391;52.068;4.542;2023-09-07T00:50:49;10.4;;;7.1;;
76548;SDS011;65391;52.068;4.542;2023-09-07T00:53:14;10;;;7.3;;
76548;SDS011;65391;52.068;4.542;2023-09-07T00:55:39;10;;;7.3;;
76548;SDS011;65391;52.068;4.542;2023-09-07T00:58:04;10;;;7.3;;
76548;SDS011;65391;52.068;4.542;2023-09-07T01:00:29;10;;;7.3;;
76548;SDS011;65391;52.068;4.542;2023-09-07T01:02:54;8.3;;;6.6;;
76548;SDS011;65391;52.068;4.542;2023-09-07T01:05:19;8.3;;;6.6;;
76548;SDS011;65391;52.068;4.542;2023-09-07T01:07:46;8.3;;;6.6;;
76548;SDS011;65391;52.068;4.542;2023-09-07T01:10:09;8.3;;;6.6;;
76548;SDS011;65391;52.068;4.542;2023-09-07T01:12:34;8.3;;;6.6;;
76548;SDS011;65391;52.068;4.542;2023-09-07T01:14:59;12.5;;;8.2;;
76548;SDS011;65391;52.068;4.542;2023-09-07T01:17:24;12.5;;;8.2;;
76548;SDS011;65391;52.068;4.542;2023-09-07T01:19:49;12.5;;;8.2;;
76548;SDS011;65391;52.068;4.542;2023-09-07T01:22:14;12.5;;;8.2;;
76548;SDS011;65391;52.068;4.542;2023-09-07T01:24:39;10.6;;;7.3;;
76548;SDS011;65391;52.068;4.542;2023-09-07T01:27:04;10.6;;;7.3;;
76548;SDS011;65391;52.068;4.542;2023-09-07T01:29:29;10.6;;;7.3;;
76548;SDS011;65391;52.068;4.542;2023-09-07T01:31:54;10.6;;;7.3;;
76548;SDS011;65391;52.068;4.542;2023-09-07T01:34:19;11.4;;;7.9;;
76548;SDS011;65391;52.068;4.542;2023-09-07T01:36:44;11.4;;;7.9;;
76548;SDS011;65391;52.068;4.542;2023-09-07T01:39:09;11.4;;;7.9;;
76548;SDS011;65391;52.068;4.542;2023-09-07T01:41:34;11.4;;;7.9;;
76548;SDS011;65391;52.068;4.542;2023-09-07T01:43:59;13.3;;;7.5;;
76548;SDS011;65391;52.068;4.542;2023-09-07T01:46:24;13.3;;;7.5;;
76548;SDS011;65391;52.068;4.542;2023-09-07T01:48:49;13.3;;;7.5;;
76548;SDS011;65391;52.068;4.542;2023-09-07T01:51:14;13.3;;;7.5;;
76548;SDS011;65391;52.068;4.542;2023-09-07T01:53:39;14.8;;;7.4;;
76548;SDS011;65391;52.068;4.542;2023-09-07T01:56:04;14.8;;;7.4;;
76548;SDS011;65391;52.068;4.542;2023-09-07T01:58:29;14.8;;;7.4;;
76548;SDS011;65391;52.068;4.542;2023-09-07T02:00:56;14.8;;;7.4;;
76548;SDS011;65391;52.068;4.542;2023-09-07T02:03:19;11.3;;;7.4;;
76548;SDS011;65391;52.068;4.542;2023-09-07T02:05:45;11.3;;;7.4;;
76548;SDS011;65391;52.068;4.542;2023-09-07T02:08:09;11.3;;;7.4;;
76548;SDS011;65391;52.068;4.542;2023-09-07T02:10:34;11.3;;;7.4;;
76548;SDS011;65391;52.068;4.542;2023-09-07T02:12:59;12.4;;;7.9;;
76548;SDS011;65391;52.068;4.542;2023-09-07T02:15:24;12.4;;;7.9;;
76548;SDS011;65391;52.068;4.542;2023-09-07T02:17:49;12.4;;;7.9;;
76548;SDS011;65391;52.068;4.542;2023-09-07T02:20:14;12.4;;;7.9;;
76548;SDS011;65391;52.068;4.542;2023-09-07T02:22:39;12.4;;;7.9;;
76548;SDS011;65391;52.068;4.542;2023-09-07T02:25:04;14.1;;;8.6;;
76548;SDS011;65391;52.068;4.542;2023-09-07T02:27:29;14.1;;;8.6;;
76548;SDS011;65391;52.068;4.542;2023-09-07T02:29:54;14.1;;;8.6;;
76548;SDS011;65391;52.068;4.542;2023-09-07T02:32:19;14.1;;;8.6;;
76548;SDS011;65391;52.068;4.542;2023-09-07T02:34:44;13.3;;;8.5;;
76548;SDS011;65391;52.068;4.542;2023-09-07T02:37:09;13.3;;;8.5;;
76548;SDS011;65391;52.068;4.542;2023-09-07T02:39:34;13.3;;;8.5;;
76548;SDS011;65391;52.068;4.542;2023-09-07T02:41:59;13.3;;;8.5;;
76548;SDS011;65391;52.068;4.542;2023-09-07T02:44:24;11.5;;;7.6;;
76548;SDS011;65391;52.068;4.542;2023-09-07T02:46:49;11.5;;;7.6;;
76548;SDS011;65391;52.068;4.542;2023-09-07T02:49:14;11.5;;;7.6;;
76548;SDS011;65391;52.068;4.542;2023-09-07T02:51:39;11.5;;;7.6;;
76548;SDS011;65391;52.068;4.542;2023-09-07T02:54:04;14.4;;;7.8;;
76548;SDS011;65391;52.068;4.542;2023-09-07T02:56:29;14.4;;;7.8;;
76548;SDS011;65391;52.068;4.542;2023-09-07T02:58:54;14.4;;;7.8;;
76548;SDS011;65391;52.068;4.542;2023-09-07T03:01:19;14.4;;;7.8;;
76548;SDS011;65391;52.068;4.542;2023-09-07T03:03:44;14.2;;;8.5;;
76548;SDS011;65391;52.068;4.542;2023-09-07T03:06:09;14.2;;;8.5;;
76548;SDS011;65391;52.068;4.542;2023-09-07T03:08:34;14.2;;;8.5;;
76548;SDS011;65391;52.068;4.542;2023-09-07T03:11:02;14.2;;;8.5;;
76548;SDS011;65391;52.068;4.542;2023-09-07T03:13:24;13;;;8.1;;
76548;SDS011;65391;52.068;4.542;2023-09-07T03:15:53;13;;;8.1;;
76548;SDS011;65391;52.068;4.542;2023-09-07T03:18:14;13;;;8.1;;
76548;SDS011;65391;52.068;4.542;2023-09-07T03:20:39;13;;;8.1;;
76548;SDS011;65391;52.068;4.542;2023-09-07T03:23:04;16.2;;;8.2;;
76548;SDS011;65391;52.068;4.542;2023-09-07T03:25:29;16.2;;;8.2;;
76548;SDS011;65391;52.068;4.542;2023-09-07T03:27:54;16.2;;;8.2;;
76548;SDS011;65391;52.068;4.542;2023-09-07T03:30:19;16.2;;;8.2;;
76548;SDS011;65391;52.068;4.542;2023-09-07T03:32:44;16.2;;;8.2;;
76548;SDS011;65391;52.068;4.542;2023-09-07T03:35:09;12.8;;;7.7;;
76548;SDS011;65391;52.068;4.542;2023-09-07T03:37:35;12.8;;;7.7;;
76548;SDS011;65391;52.068;4.542;2023-09-07T03:40:00;12.8;;;7.7;;
76548;SDS011;65391;52.068;4.542;2023-09-07T03:42:24;12.8;;;7.7;;
76548;SDS011;65391;52.068;4.542;2023-09-07T03:44:49;18.4;;;10.2;;
76548;SDS011;65391;52.068;4.542;2023-09-07T03:47:14;18.4;;;10.2;;
76548;SDS011;65391;52.068;4.542;2023-09-07T03:49:39;18.4;;;10.2;;
76548;SDS011;65391;52.068;4.542;2023-09-07T03:52:04;18.4;;;10.2;;
76548;SDS011;65391;52.068;4.542;2023-09-07T03:54:30;15.5;;;9.6;;
76548;SDS011;65391;52.068;4.542;2023-09-07T03:56:54;15.5;;;9.6;;
76548;SDS011;65391;52.068;4.542;2023-09-07T03:59:20;15.5;;;9.6;;
76548;SDS011;65391;52.068;4.542;2023-09-07T04:01:45;15.5;;;9.6;;
76548;SDS011;65391;52.068;4.542;2023-09-07T04:04:09;18;;;9.7;;
76548;SDS011;65391;52.068;4.542;2023-09-07T04:06:34;18;;;9.7;;
76548;SDS011;65391;52.068;4.542;2023-09-07T04:08:59;18;;;9.7;;
76548;SDS011;65391;52.068;4.542;2023-09-07T04:11:24;18;;;9.7;;
76548;SDS011;65391;52.068;4.542;2023-09-07T04:13:49;15.3;;;9.4;;
76548;SDS011;65391;52.068;4.542;2023-09-07T04:16:14;15.3;;;9.4;;
76548;SDS011;65391;52.068;4.542;2023-09-07T04:18:39;15.3;;;9.4;;
76548;SDS011;65391;52.068;4.542;2023-09-07T04:21:05;15.3;;;9.4;;
76548;SDS011;65391;52.068;4.542;2023-09-07T04:23:29;17.9;;;10;;
76548;SDS011;65391;52.068;4.542;2023-09-07T04:26:03;17.9;;;10;;
76548;SDS011;65391;52.068;4.542;2023-09-07T04:28:20;17.9;;;10;;
76548;SDS011;65391;52.068;4.542;2023-09-07T04:30:44;17.9;;;10;;
76548;SDS011;65391;52.068;4.542;2023-09-07T04:33:09;17.6;;;9.6;;
76548;SDS011;65391;52.068;4.542;2023-09-07T04:35:34;17.6;;;9.6;;
76548;SDS011;65391;52.068;4.542;2023-09-07T04:37:59;17.6;;;9.6;;
76548;SDS011;65391;52.068;4.542;2023-09-07T04:40:24;17.6;;;9.6;;
76548;SDS011;65391;52.068;4.542;2023-09-07T04:42:50;17.6;;;9.6;;
76548;SDS011;65391;52.068;4.542;2023-09-07T04:45:15;16.5;;;9.5;;
76548;SDS011;65391;52.068;4.542;2023-09-07T04:47:39;16.5;;;9.5;;
76548;SDS011;65391;52.068;4.542;2023-09-07T04:50:05;16.5;;;9.5;;
76548;SDS011;65391;52.068;4.542;2023-09-07T04:52:29;16.5;;;9.5;;
76548;SDS011;65391;52.068;4.542;2023-09-07T04:54:54;17.2;;;9.3;;
76548;SDS011;65391;52.068;4.542;2023-09-07T04:57:19;17.2;;;9.3;;
76548;SDS011;65391;52.068;4.542;2023-09-07T04:59:44;17.2;;;9.3;;
76548;SDS011;65391;52.068;4.542;2023-09-07T05:02:09;17.2;;;9.3;;
76548;SDS011;65391;52.068;4.542;2023-09-07T05:04:34;18.1;;;10.3;;
76548;SDS011;65391;52.068;4.542;2023-09-07T05:06:59;18.1;;;10.3;;
76548;SDS011;65391;52.068;4.542;2023-09-07T05:09:24;18.1;;;10.3;;
76548;SDS011;65391;52.068;4.542;2023-09-07T05:11:49;18.1;;;10.3;;
76548;SDS011;65391;52.068;4.542;2023-09-07T05:14:14;16.8;;;10.1;;
76548;SDS011;65391;52.068;4.542;2023-09-07T05:16:42;16.8;;;10.1;;
76548;SDS011;65391;52.068;4.542;2023-09-07T05:19:04;16.8;;;10.1;;
76548;SDS011;65391;52.068;4.542;2023-09-07T05:21:29;16.8;;;10.1;;
76548;SDS011;65391;52.068;4.542;2023-09-07T05:23:54;18.5;;;10.3;;
76548;SDS011;65391;52.068;4.542;2023-09-07T05:26:21;18.5;;;10.3;;
76548;SDS011;65391;52.068;4.542;2023-09-07T05:28:44;18.5;;;10.3;;
76548;SDS011;65391;52.068;4.542;2023-09-07T05:31:09;18.5;;;10.3;;
76548;SDS011;65391;52.068;4.542;2023-09-07T05:33:34;18.7;;;10.5;;
76548;SDS011;65391;52.068;4.542;2023-09-07T05:35:59;18.7;;;10.5;;
76548;SDS011;65391;52.068;4.542;2023-09-07T05:38:24;18.7;;;10.5;;
76548;SDS011;65391;52.068;4.542;2023-09-07T05:40:50;18.7;;;10.5;;
76548;SDS011;65391;52.068;4.542;2023-09-07T05:43:14;16.5;;;9.1;;
76548;SDS011;65391;52.068;4.542;2023-09-07T05:45:40;16.5;;;9.1;;
76548;SDS011;65391;52.068;4.542;2023-09-07T05:48:05;16.5;;;9.1;;
76548;SDS011;65391;52.068;4.542;2023-09-07T05:50:29;16.5;;;9.1;;
76548;SDS011;65391;52.068;4.542;2023-09-07T05:52:54;16.5;;;9.1;;
76548;SDS011;65391;52.068;4.542;2023-09-07T05:55:19;13.5;;;8.2;;
76548;SDS011;65391;52.068;4.542;2023-09-07T05:57:44;13.5;;;8.2;;
76548;SDS011;65391;52.068;4.542;2023-09-07T06:00:10;13.5;;;8.2;;
76548;SDS011;65391;52.068;4.542;2023-09-07T06:02:34;13.5;;;8.2;;
76548;SDS011;65391;52.068;4.542;2023-09-07T06:04:59;13.7;;;8.7;;
76548;SDS011;65391;52.068;4.542;2023-09-07T06:07:25;13.7;;;8.7;;
76548;SDS011;65391;52.068;4.542;2023-09-07T06:09:49;13.7;;;8.7;;
76548;SDS011;65391;52.068;4.542;2023-09-07T06:12:14;13.7;;;8.7;;
76548;SDS011;65391;52.068;4.542;2023-09-07T06:14:39;12.6;;;7.4;;
76548;SDS011;65391;52.068;4.542;2023-09-07T06:17:04;12.6;;;7.4;;
76548;SDS011;65391;52.068;4.542;2023-09-07T06:19:30;12.6;;;7.4;;
76548;SDS011;65391;52.068;4.542;2023-09-07T06:21:54;12.6;;;7.4;;
76548;SDS011;65391;52.068;4.542;2023-09-07T06:24:20;15;;;7.6;;
76548;SDS011;65391;52.068;4.542;2023-09-07T06:26:45;15;;;7.6;;
76548;SDS011;65391;52.068;4.542;2023-09-07T06:29:09;15;;;7.6;;
76548;SDS011;65391;52.068;4.542;2023-09-07T06:31:35;15;;;7.6;;
76548;SDS011;65391;52.068;4.542;2023-09-07T06:33:59;12.8;;;7.1;;
76548;SDS011;65391;52.068;4.542;2023-09-07T06:36:25;12.8;;;7.1;;
76548;SDS011;65391;52.068;4.542;2023-09-07T06:38:50;12.8;;;7.1;;
76548;SDS011;65391;52.068;4.542;2023-09-07T06:41:14;12.8;;;7.1;;
76548;SDS011;65391;52.068;4.542;2023-09-07T06:43:40;14.1;;;8.1;;
76548;SDS011;65391;52.068;4.542;2023-09-07T06:46:05;14.1;;;8.1;;
76548;SDS011;65391;52.068;4.542;2023-09-07T06:48:30;14.1;;;8.1;;
76548;SDS011;65391;52.068;4.542;2023-09-07T06:50:55;14.1;;;8.1;;
76548;SDS011;65391;52.068;4.542;2023-09-07T06:53:20;14.1;;;8.1;;
76548;SDS011;65391;52.068;4.542;2023-09-07T06:55:45;12.3;;;8.2;;
76548;SDS011;65391;52.068;4.542;2023-09-07T06:58:10;12.3;;;8.2;;
76548;SDS011;65391;52.068;4.542;2023-09-07T07:00:35;12.3;;;8.2;;
76548;SDS011;65391;52.068;4.542;2023-09-07T07:03:00;12.3;;;8.2;;
76548;SDS011;65391;52.068;4.542;2023-09-07T07:05:25;12.7;;;8.2;;
76548;SDS011;65391;52.068;4.542;2023-09-07T07:07:50;12.7;;;8.2;;
76548;SDS011;65391;52.068;4.542;2023-09-07T07:10:15;12.7;;;8.2;;
76548;SDS011;65391;52.068;4.542;2023-09-07T07:12:40;12.7;;;8.2;;
76548;SDS011;65391;52.068;4.542;2023-09-07T07:15:05;11.3;;;7.8;;
76548;SDS011;65391;52.068;4.542;2023-09-07T07:17:30;11.3;;;7.8;;
76548;SDS011;65391;52.068;4.542;2023-09-07T07:19:55;11.3;;;7.8;;
76548;SDS011;65391;52.068;4.542;2023-09-07T07:22:20;11.3;;;7.8;;
76548;SDS011;65391;52.068;4.542;2023-09-07T07:24:45;13.5;;;9.4;;
76548;SDS011;65391;52.068;4.542;2023-09-07T07:27:10;13.5;;;9.4;;
76548;SDS011;65391;52.068;4.542;2023-09-07T07:29:35;13.5;;;9.4;;
76548;SDS011;65391;52.068;4.542;2023-09-07T07:32:00;13.5;;;9.4;;
76548;SDS011;65391;52.068;4.542;2023-09-07T07:34:25;9.5;;;8.1;;
76548;SDS011;65391;52.068;4.542;2023-09-07T07:36:50;9.5;;;8.1;;
76548;SDS011;65391;52.068;4.542;2023-09-07T07:39:15;9.5;;;8.1;;
76548;SDS011;65391;52.068;4.542;2023-09-07T07:41:40;9.5;;;8.1;;
76548;SDS011;65391;52.068;4.542;2023-09-07T07:44:05;14;;;9;;
76548;SDS011;65391;52.068;4.542;2023-09-07T07:46:30;14;;;9;;
76548;SDS011;65391;52.068;4.542;2023-09-07T07:48:55;14;;;9;;
76548;SDS011;65391;52.068;4.542;2023-09-07T07:51:20;14;;;9;;
76548;SDS011;65391;52.068;4.542;2023-09-07T07:53:45;13.6;;;8.5;;
76548;SDS011;65391;52.068;4.542;2023-09-07T07:56:17;13.6;;;8.5;;
76548;SDS011;65391;52.068;4.542;2023-09-07T07:58:35;13.6;;;8.5;;
76548;SDS011;65391;52.068;4.542;2023-09-07T08:01:00;13.6;;;8.5;;
76548;SDS011;65391;52.068;4.542;2023-09-07T08:03:25;13.6;;;8.5;;
76548;SDS011;65391;52.068;4.542;2023-09-07T08:05:50;11.8;;;8.1;;
76548;SDS011;65391;52.068;4.542;2023-09-07T08:08:15;11.8;;;8.1;;
76548;SDS011;65391;52.068;4.542;2023-09-07T08:10:40;11.8;;;8.1;;
76548;SDS011;65391;52.068;4.542;2023-09-07T08:13:05;11.8;;;8.1;;
76548;SDS011;65391;52.068;4.542;2023-09-07T08:15:31;13.7;;;7.2;;
76548;SDS011;65391;52.068;4.542;2023-09-07T08:17:55;13.7;;;7.2;;
76548;SDS011;65391;52.068;4.542;2023-09-07T08:20:20;13.7;;;7.2;;
76548;SDS011;65391;52.068;4.542;2023-09-07T08:22:45;13.7;;;7.2;;
76548;SDS011;65391;52.068;4.542;2023-09-07T08:25:10;10.2;;;7.8;;
76548;SDS011;65391;52.068;4.542;2023-09-07T08:27:35;10.2;;;7.8;;
76548;SDS011;65391;52.068;4.542;2023-09-07T08:30:00;10.2;;;7.8;;
76548;SDS011;65391;52.068;4.542;2023-09-07T08:32:25;10.2;;;7.8;;
76548;SDS011;65391;52.068;4.542;2023-09-07T08:34:50;10.9;;;6.5;;
76548;SDS011;65391;52.068;4.542;2023-09-07T08:37:15;10.9;;;6.5;;
76548;SDS011;65391;52.068;4.542;2023-09-07T08:39:40;10.9;;;6.5;;
76548;SDS011;65391;52.068;4.542;2023-09-07T08:42:05;10.9;;;6.5;;
76548;SDS011;65391;52.068;4.542;2023-09-07T08:44:30;10.1;;;6.3;;
76548;SDS011;65391;52.068;4.542;2023-09-07T08:46:55;10.1;;;6.3;;
76548;SDS011;65391;52.068;4.542;2023-09-07T08:49:20;10.1;;;6.3;;
76548;SDS011;65391;52.068;4.542;2023-09-07T08:51:45;10.1;;;6.3;;
76548;SDS011;65391;52.068;4.542;2023-09-07T08:54:10;11.4;;;5.8;;
76548;SDS011;65391;52.068;4.542;2023-09-07T08:56:35;11.4;;;5.8;;
76548;SDS011;65391;52.068;4.542;2023-09-07T08:59:00;11.4;;;5.8;;
76548;SDS011;65391;52.068;4.542;2023-09-07T09:01:25;11.4;;;5.8;;
76548;SDS011;65391;52.068;4.542;2023-09-07T09:03:50;7.6;;;5.8;;
76548;SDS011;65391;52.068;4.542;2023-09-07T09:06:16;7.6;;;5.8;;
76548;SDS011;65391;52.068;4.542;2023-09-07T09:08:42;7.6;;;5.8;;
76548;SDS011;65391;52.068;4.542;2023-09-07T09:11:05;7.6;;;5.8;;
76548;SDS011;65391;52.068;4.542;2023-09-07T09:13:30;7.6;;;5.8;;
76548;SDS011;65391;52.068;4.542;2023-09-07T09:15:55;8.1;;;5.2;;
76548;SDS011;65391;52.068;4.542;2023-09-07T09:18:20;8.1;;;5.2;;
76548;SDS011;65391;52.068;4.542;2023-09-07T09:20:45;8.1;;;5.2;;
76548;SDS011;65391;52.068;4.542;2023-09-07T09:23:10;8.1;;;5.2;;
76548;SDS011;65391;52.068;4.542;2023-09-07T09:25:35;7.9;;;5.9;;
76548;SDS011;65391;52.068;4.542;2023-09-07T09:28:00;7.9;;;5.9;;
76548;SDS011;65391;52.068;4.542;2023-09-07T09:30:25;7.9;;;5.9;;
76548;SDS011;65391;52.068;4.542;2023-09-07T09:32:50;7.9;;;5.9;;
76548;SDS011;65391;52.068;4.542;2023-09-07T09:35:16;8.5;;;5.5;;
76548;SDS011;65391;52.068;4.542;2023-09-07T09:37:44;8.5;;;5.5;;
76548;SDS011;65391;52.068;4.542;2023-09-07T09:40:06;8.5;;;5.5;;
76548;SDS011;65391;52.068;4.542;2023-09-07T09:42:30;8.5;;;5.5;;
76548;SDS011;65391;52.068;4.542;2023-09-07T09:44:55;7;;;5.3;;
76548;SDS011;65391;52.068;4.542;2023-09-07T09:47:20;7;;;5.3;;
76548;SDS011;65391;52.068;4.542;2023-09-07T09:49:45;7;;;5.3;;
76548;SDS011;65391;52.068;4.542;2023-09-07T09:52:10;7;;;5.3;;
76548;SDS011;65391;52.068;4.542;2023-09-07T09:54:35;7.8;;;4.4;;
76548;SDS011;65391;52.068;4.542;2023-09-07T09:57:00;7.8;;;4.4;;
76548;SDS011;65391;52.068;4.542;2023-09-07T09:59:25;7.8;;;4.4;;
76548;SDS011;65391;52.068;4.542;2023-09-07T10:01:50;7.8;;;4.4;;
76548;SDS011;65391;52.068;4.542;2023-09-07T10:04:17;12.8;;;5.2;;
76548;SDS011;65391;52.068;4.542;2023-09-07T10:06:53;12.8;;;5.2;;
76548;SDS011;65391;52.068;4.542;2023-09-07T10:09:06;12.8;;;5.2;;
76548;SDS011;65391;52.068;4.542;2023-09-07T10:11:30;12.8;;;5.2;;
76548;SDS011;65391;52.068;4.542;2023-09-07T10:13:57;5.5;;;4.3;;
76548;SDS011;65391;52.068;4.542;2023-09-07T10:16:20;5.5;;;4.3;;
76548;SDS011;65391;52.068;4.542;2023-09-07T10:18:45;5.5;;;4.3;;
76548;SDS011;65391;52.068;4.542;2023-09-07T10:21:10;5.5;;;4.3;;
76548;SDS011;65391;52.068;4.542;2023-09-07T10:23:36;5.5;;;4.3;;
76548;SDS011;65391;52.068;4.542;2023-09-07T10:26:00;5.6;;;3.4;;
76548;SDS011;65391;52.068;4.542;2023-09-07T10:28:25;5.6;;;3.4;;
76548;SDS011;65391;52.068;4.542;2023-09-07T10:31:06;5.6;;;3.4;;
76548;SDS011;65391;52.068;4.542;2023-09-07T10:33:19;5.6;;;3.4;;
76548;SDS011;65391;52.068;4.542;2023-09-07T10:35:40;6.9;;;3.4;;
76548;SDS011;65391;52.068;4.542;2023-09-07T10:38:05;6.9;;;3.4;;
76548;SDS011;65391;52.068;4.542;2023-09-07T10:40:30;6.9;;;3.4;;
76548;SDS011;65391;52.068;4.542;2023-09-07T10:43:02;6.9;;;3.4;;
76548;SDS011;65391;52.068;4.542;2023-09-07T10:45:20;5.7;;;3.3;;
76548;SDS011;65391;52.068;4.542;2023-09-07T10:47:45;5.7;;;3.3;;
76548;SDS011;65391;52.068;4.542;2023-09-07T10:50:10;5.7;;;3.3;;
76548;SDS011;65391;52.068;4.542;2023-09-07T10:52:35;5.7;;;3.3;;
76548;SDS011;65391;52.068;4.542;2023-09-07T10:55:00;5.1;;;3.3;;
76548;SDS011;65391;52.068;4.542;2023-09-07T10:57:25;5.1;;;3.3;;
76548;SDS011;65391;52.068;4.542;2023-09-07T10:59:50;5.1;;;3.3;;
76548;SDS011;65391;52.068;4.542;2023-09-07T11:02:15;5.1;;;3.3;;
76548;SDS011;65391;52.068;4.542;2023-09-07T11:04:40;6.2;;;3.1;;
76548;SDS011;65391;52.068;4.542;2023-09-07T11:07:05;6.2;;;3.1;;
76548;SDS011;65391;52.068;4.542;2023-09-07T11:09:30;6.2;;;3.1;;
76548;SDS011;65391;52.068;4.542;2023-09-07T11:11:55;6.2;;;3.1;;
76548;SDS011;65391;52.068;4.542;2023-09-07T11:14:21;4.5;;;2.7;;
76548;SDS011;65391;52.068;4.542;2023-09-07T11:16:45;4.5;;;2.7;;
76548;SDS011;65391;52.068;4.542;2023-09-07T11:19:10;4.5;;;2.7;;
76548;SDS011;65391;52.068;4.542;2023-09-07T11:21:35;4.5;;;2.7;;
76548;SDS011;65391;52.068;4.542;2023-09-07T11:24:00;7;;;2.7;;
76548;SDS011;65391;52.068;4.542;2023-09-07T11:26:25;7;;;2.7;;
76548;SDS011;65391;52.068;4.542;2023-09-07T11:28:50;7;;;2.7;;
76548;SDS011;65391;52.068;4.542;2023-09-07T11:31:18;7;;;2.7;;
76548;SDS011;65391;52.068;4.542;2023-09-07T11:33:40;7;;;2.7;;
76548;SDS011;65391;52.068;4.542;2023-09-07T11:36:05;4.7;;;2.8;;
76548;SDS011;65391;52.068;4.542;2023-09-07T11:38:35;4.7;;;2.8;;
76548;SDS011;65391;52.068;4.542;2023-09-07T11:40:55;4.7;;;2.8;;
76548;SDS011;65391;52.068;4.542;2023-09-07T11:43:20;4.7;;;2.8;;
76548;SDS011;65391;52.068;4.542;2023-09-07T11:45:46;5.3;;;3.3;;
76548;SDS011;65391;52.068;4.542;2023-09-07T11:48:10;5.3;;;3.3;;
76548;SDS011;65391;52.068;4.542;2023-09-07T11:50:36;5.3;;;3.3;;
76548;SDS011;65391;52.068;4.542;2023-09-07T11:53:00;5.3;;;3.3;;
76548;SDS011;65391;52.068;4.542;2023-09-07T11:55:25;4.7;;;3;;
76548;SDS011;65391;52.068;4.542;2023-09-07T11:57:50;4.7;;;3;;
76548;SDS011;65391;52.068;4.542;2023-09-07T12:00:16;4.7;;;3;;
76548;SDS011;65391;52.068;4.542;2023-09-07T12:02:40;4.7;;;3;;
76548;SDS011;65391;52.068;4.542;2023-09-07T12:05:06;6.3;;;2.7;;
76548;SDS011;65391;52.068;4.542;2023-09-07T12:07:30;6.3;;;2.7;;
76548;SDS011;65391;52.068;4.542;2023-09-07T12:09:56;6.3;;;2.7;;
76548;SDS011;65391;52.068;4.542;2023-09-07T12:12:20;6.3;;;2.7;;
76548;SDS011;65391;52.068;4.542;2023-09-07T12:14:45;6.5;;;2.7;;
76548;SDS011;65391;52.068;4.542;2023-09-07T12:17:10;6.5;;;2.7;;
76548;SDS011;65391;52.068;4.542;2023-09-07T12:19:35;6.5;;;2.7;;
76548;SDS011;65391;52.068;4.542;2023-09-07T12:22:00;6.5;;;2.7;;
76548;SDS011;65391;52.068;4.542;2023-09-07T12:24:25;5.9;;;2.8;;
76548;SDS011;65391;52.068;4.542;2023-09-07T12:26:50;5.9;;;2.8;;
76548;SDS011;65391;52.068;4.542;2023-09-07T12:29:15;5.9;;;2.8;;
76548;SDS011;65391;52.068;4.542;2023-09-07T12:31:40;5.9;;;2.8;;
76548;SDS011;65391;52.068;4.542;2023-09-07T12:34:05;3.4;;;2.8;;
76548;SDS011;65391;52.068;4.542;2023-09-07T12:36:30;3.4;;;2.8;;
76548;SDS011;65391;52.068;4.542;2023-09-07T12:38:55;3.4;;;2.8;;
76548;SDS011;65391;52.068;4.542;2023-09-07T12:41:20;3.4;;;2.8;;
76548;SDS011;65391;52.068;4.542;2023-09-07T12:43:45;3.4;;;2.8;;
76548;SDS011;65391;52.068;4.542;2023-09-07T12:46:10;3.8;;;2.6;;
76548;SDS011;65391;52.068;4.542;2023-09-07T12:48:35;3.8;;;2.6;;
76548;SDS011;65391;52.068;4.542;2023-09-07T12:51:00;3.8;;;2.6;;
76548;SDS011;65391;52.068;4.542;2023-09-07T12:53:25;3.8;;;2.6;;
76548;SDS011;65391;52.068;4.542;2023-09-07T12:55:51;5.3;;;2.9;;
76548;SDS011;65391;52.068;4.542;2023-09-07T12:58:15;5.3;;;2.9;;
76548;SDS011;65391;52.068;4.542;2023-09-07T13:00:40;5.3;;;2.9;;
76548;SDS011;65391;52.068;4.542;2023-09-07T13:03:05;5.3;;;2.9;;
76548;SDS011;65391;52.068;4.542;2023-09-07T13:05:30;10.2;;;2.5;;
76548;SDS011;65391;52.068;4.542;2023-09-07T13:07:56;10.2;;;2.5;;
76548;SDS011;65391;52.068;4.542;2023-09-07T13:10:20;10.2;;;2.5;;
76548;SDS011;65391;52.068;4.542;2023-09-07T13:12:45;10.2;;;2.5;;
76548;SDS011;65391;52.068;4.542;2023-09-07T13:15:10;5.6;;;3;;
76548;SDS011;65391;52.068;4.542;2023-09-07T13:17:36;5.6;;;3;;
76548;SDS011;65391;52.068;4.542;2023-09-07T13:20:00;5.6;;;3;;
76548;SDS011;65391;52.068;4.542;2023-09-07T13:22:25;5.6;;;3;;
76548;SDS011;65391;52.068;4.542;2023-09-07T13:24:50;4.3;;;2.4;;
76548;SDS011;65391;52.068;4.542;2023-09-07T13:27:15;4.3;;;2.4;;
76548;SDS011;65391;52.068;4.542;2023-09-07T13:29:40;4.3;;;2.4;;
76548;SDS011;65391;52.068;4.542;2023-09-07T13:32:06;4.3;;;2.4;;
76548;SDS011;65391;52.068;4.542;2023-09-07T13:34:30;5.1;;;2.6;;
76548;SDS011;65391;52.068;4.542;2023-09-07T13:36:55;5.1;;;2.6;;
76548;SDS011;65391;52.068;4.542;2023-09-07T13:39:20;5.1;;;2.6;;
76548;SDS011;65391;52.068;4.542;2023-09-07T13:41:45;5.1;;;2.6;;
76548;SDS011;65391;52.068;4.542;2023-09-07T13:44:11;3.2;;;2.6;;
76548;SDS011;65391;52.068;4.542;2023-09-07T13:46:35;3.2;;;2.6;;
76548;SDS011;65391;52.068;4.542;2023-09-07T13:49:00;3.2;;;2.6;;
76548;SDS011;65391;52.068;4.542;2023-09-07T13:51:25;3.2;;;2.6;;
76548;SDS011;65391;52.068;4.542;2023-09-07T13:53:50;3.2;;;2.6;;
76548;SDS011;65391;52.068;4.542;2023-09-07T13:56:16;3.4;;;2.4;;
76548;SDS011;65391;52.068;4.542;2023-09-07T13:58:40;3.4;;;2.4;;
76548;SDS011;65391;52.068;4.542;2023-09-07T14:01:06;3.4;;;2.4;;
76548;SDS011;65391;52.068;4.542;2023-09-07T14:03:31;3.4;;;2.4;;
76548;SDS011;65391;52.068;4.542;2023-09-07T14:05:55;4.2;;;2.6;;
76548;SDS011;65391;52.068;4.542;2023-09-07T14:08:21;4.2;;;2.6;;
76548;SDS011;65391;52.068;4.542;2023-09-07T14:10:46;4.2;;;2.6;;
76548;SDS011;65391;52.068;4.542;2023-09-07T14:13:11;4.2;;;2.6;;
76548;SDS011;65391;52.068;4.542;2023-09-07T14:15:35;6.2;;;2.8;;
76548;SDS011;65391;52.068;4.542;2023-09-07T14:18:01;6.2;;;2.8;;
76548;SDS011;65391;52.068;4.542;2023-09-07T14:20:26;6.2;;;2.8;;
76548;SDS011;65391;52.068;4.542;2023-09-07T14:22:51;6.2;;;2.8;;
76548;SDS011;65391;52.068;4.542;2023-09-07T14:25:15;5.9;;;3.2;;
76548;SDS011;65391;52.068;4.542;2023-09-07T14:27:40;5.9;;;3.2;;
76548;SDS011;65391;52.068;4.542;2023-09-07T14:30:06;5.9;;;3.2;;
76548;SDS011;65391;52.068;4.542;2023-09-07T14:32:31;5.9;;;3.2;;
76548;SDS011;65391;52.068;4.542;2023-09-07T14:34:56;4.7;;;2.9;;
76548;SDS011;65391;52.068;4.542;2023-09-07T14:37:21;4.7;;;2.9;;
76548;SDS011;65391;52.068;4.542;2023-09-07T14:39:46;4.7;;;2.9;;
76548;SDS011;65391;52.068;4.542;2023-09-07T14:42:11;4.7;;;2.9;;
76548;SDS011;65391;52.068;4.542;2023-09-07T14:44:36;5;;;2.7;;
76548;SDS011;65391;52.068;4.542;2023-09-07T14:47:01;5;;;2.7;;
76548;SDS011;65391;52.068;4.542;2023-09-07T14:49:26;5;;;2.7;;
76548;SDS011;65391;52.068;4.542;2023-09-07T14:51:51;5;;;2.7;;
76548;SDS011;65391;52.068;4.542;2023-09-07T14:54:16;6.3;;;3;;